Pajala, Sweden

9:19 AM CEST on August 20, 2014 (GMT +0200)
Kittila | Change Station
CLOSE
Current Station
Airport
Location: Kittila,
Elevation: 643 ft
Nearby Weather Stations

Elev 643 ft 67.70 °N, 24.86 °E | Updated 29 minutes ago

Light Rain
Light Rain
48 °F
Feels Like 48 °F
N
6
Wind Variable Wind from NNE

Today
High -- | Low -- °F
--% Chance of Precip.
Yesterday
High -- | Low -- °F
Precip. -- in
4:12 AM 8:44 PM
Waning Crescent, 24% visible
Pressure 29.44 in
Visibility 3.7 miles
Clouds Overcast 700 ft
Dew Point 48 °F
Humidity 100%
Rainfall 0.00 in
Snow Depth Not available.
UV 1 out of 12
Pollen Not available.
Air Quality Not available.
Flu Activity Not available.
METAR EFKT 200650Z AUTO 02005KT 300V100 6000 -RA OVC007 09/09 Q0997

More Conditions Fewer Conditions

Pressure 29.44 in
Visibility 3.7 miles
Clouds Overcast 700 ft
Dew Point 48 °F
Humidity 100%
Rainfall 0.00 in
Snow Depth Not available.
UV 1 out of 12
Pollen Not available.
Air Quality Not available.
Flu Activity Not available.
METAR EFKT 200650Z AUTO 02005KT 300V100 6000 -RA OVC007 09/09 Q0997

More Conditions Fewer Conditions

10-Day Weather Forecast

Almanac

Astronomy

Aug. 20, 2014 Rise Set
Actual Time 4:12 AM CEST 8:44 PM CEST
Civil Twilight 2:55 AM CEST 9:59 PM CEST
Nautical Twilight 1:02 AM CEST 11:57 PM CEST
Astronomical Twilight Sun does not rise Sun does not rise
Moon 11:30 PM CEST 6:16 PM CEST
Length of Visible Light 19h 04m
Length of Day
16h 32m
Tomorrow will be 7m 58s shorter.
Waning Crescent, 24% of the Moon is Illuminated
Today
Waning Crescent
Aug 25
New
Sep 2
First Quarter
Sep 8
Full
Sep 15
Last Quarter

Yesterday's Extremes

Country Highs Country Lows

Community

WunderPhotos

Upload Photos

1,745,592 photos uploaded!

Nearby

Snow Depth

Not available.

Earthquake Activity

City Distance Mag. Time & Date
No recent earthquake activity has been reported nearby.
Minimum magnitude displayed is 2.5.

Coastal Water Temperatures

Place Temperature
No Stations Reporting

Nearby Weather Stations